sensor_id;sensor_type;location;lat;lon;timestamp;pressure;altitude;pressure_sealevel;temperature;humidity
64503;BME280;50971;51.940;21.258;2022-11-03T00:09:55;101145.42;;;7.00;100.00
64503;BME280;50971;51.940;21.258;2022-11-03T00:19:57;101150.38;;;6.96;100.00
64503;BME280;50971;51.940;21.258;2022-11-03T00:29:58;101151.59;;;6.90;100.00
64503;BME280;50971;51.940;21.258;2022-11-03T00:39:59;101144.42;;;6.65;100.00
64503;BME280;50971;51.940;21.258;2022-11-03T00:50:00;101145.71;;;6.34;100.00
64503;BME280;50971;51.940;21.258;2022-11-03T01:00:02;101139.80;;;6.21;100.00
64503;BME280;50971;51.940;21.258;2022-11-03T01:10:03;101150.17;;;6.19;100.00
64503;BME280;50971;51.940;21.258;2022-11-03T01:20:06;101160.81;;;6.23;100.00
64503;BME280;50971;51.940;21.258;2022-11-03T01:30:07;101173.55;;;6.10;100.00
64503;BME280;50971;51.940;21.258;2022-11-03T01:40:09;101183.41;;;5.90;100.00
64503;BME280;50971;51.940;21.258;2022-11-03T01:50:14;101167.38;;;5.86;100.00
64503;BME280;50971;51.940;21.258;2022-11-03T02:00:17;101165.65;;;5.88;100.00
64503;BME280;50971;51.940;21.258;2022-11-03T02:10:19;101162.39;;;5.91;100.00
64503;BME280;50971;51.940;21.258;2022-11-03T02:20:23;101175.56;;;5.76;100.00
64503;BME280;50971;51.940;21.258;2022-11-03T02:30:28;101187.55;;;5.55;100.00
64503;BME280;50971;51.940;21.258;2022-11-03T02:40:37;101193.34;;;5.54;100.00
64503;BME280;50971;51.940;21.258;2022-11-03T02:50:40;101198.48;;;5.59;100.00
64503;BME280;50971;51.940;21.258;2022-11-03T03:10:50;101208.40;;;5.47;100.00
64503;BME280;50971;51.940;21.258;2022-11-03T03:20:57;101210.85;;;5.20;100.00
64503;BME280;50971;51.940;21.258;2022-11-03T03:31:04;101212.25;;;5.11;100.00
64503;BME280;50971;51.940;21.258;2022-11-03T03:41:09;101215.01;;;5.15;100.00
64503;BME280;50971;51.940;21.258;2022-11-03T03:51:15;101216.79;;;5.18;100.00
64503;BME280;50971;51.940;21.258;2022-11-03T04:01:17;101224.33;;;5.01;100.00
64503;BME280;50971;51.940;21.258;2022-11-03T04:11:19;101224.23;;;4.79;100.00
64503;BME280;50971;51.940;21.258;2022-11-03T04:21:39;101223.86;;;4.77;100.00
64503;BME280;50971;51.940;21.258;2022-11-03T04:31:59;101227.00;;;4.80;100.00
64503;BME280;50971;51.940;21.258;2022-11-03T04:42:01;101229.73;;;4.71;100.00
64503;BME280;50971;51.940;21.258;2022-11-03T04:52:04;101234.42;;;4.44;100.00
64503;BME280;50971;51.940;21.258;2022-11-03T05:02:12;101246.95;;;4.12;100.00
64503;BME280;50971;51.940;21.258;2022-11-03T05:12:14;101249.74;;;3.82;100.00
64503;BME280;50971;51.940;21.258;2022-11-03T05:22:19;101249.63;;;3.84;100.00
64503;BME280;50971;51.940;21.258;2022-11-03T05:32:27;101251.18;;;3.96;100.00
64503;BME280;50971;51.940;21.258;2022-11-03T05:42:36;101252.79;;;4.03;100.00
64503;BME280;50971;51.940;21.258;2022-11-03T05:52:40;101255.30;;;3.96;100.00
64503;BME280;50971;51.940;21.258;2022-11-03T06:02:44;101260.72;;;3.86;100.00
64503;BME280;50971;51.940;21.258;2022-11-03T06:12:46;101266.63;;;3.79;100.00
64503;BME280;50971;51.940;21.258;2022-11-03T06:22:49;101275.90;;;4.02;100.00
64503;BME280;50971;51.940;21.258;2022-11-03T06:32:52;101283.93;;;4.39;100.00
64503;BME280;50971;51.940;21.258;2022-11-03T06:42:55;101285.82;;;4.78;100.00
64503;BME280;50971;51.940;21.258;2022-11-03T06:53:01;101284.52;;;5.05;100.00
64503;BME280;50971;51.940;21.258;2022-11-03T07:13:30;101281.82;;;5.84;100.00
64503;BME280;50971;51.940;21.258;2022-11-03T07:23:34;101280.18;;;6.36;100.00
64503;BME280;50971;51.940;21.258;2022-11-03T07:33:35;101281.98;;;6.69;100.00
64503;BME280;50971;51.940;21.258;2022-11-03T07:43:37;101270.45;;;6.91;100.00
64503;BME280;50971;51.940;21.258;2022-11-03T07:53:43;101264.73;;;7.33;100.00
64503;BME280;50971;51.940;21.258;2022-11-03T08:03:46;101262.62;;;7.82;100.00
64503;BME280;50971;51.940;21.258;2022-11-03T08:13:49;101262.38;;;8.09;100.00
64503;BME280;50971;51.940;21.258;2022-11-03T08:23:51;101267.52;;;8.24;100.00
64503;BME280;50971;51.940;21.258;2022-11-03T09:18:49;101256.58;;;9.48;100.00
64503;BME280;50971;51.940;21.258;2022-11-03T09:28:51;101257.06;;;10.22;100.00
64503;BME280;50971;51.940;21.258;2022-11-03T09:38:53;101250.05;;;10.42;100.00
64503;BME280;50971;51.940;21.258;2022-11-03T09:48:56;101252.73;;;10.50;100.00
64503;BME280;50971;51.940;21.258;2022-11-03T09:59:00;101238.40;;;10.49;100.00
64503;BME280;50971;51.940;21.258;2022-11-03T10:09:02;101230.45;;;10.52;100.00
64503;BME280;50971;51.940;21.258;2022-11-03T10:19:16;101217.45;;;10.75;100.00
64503;BME280;50971;51.940;21.258;2022-11-03T10:39:29;101198.88;;;10.84;100.00
64503;BME280;50971;51.940;21.258;2022-11-03T10:49:33;101194.00;;;10.84;100.00
64503;BME280;50971;51.940;21.258;2022-11-03T10:59:46;101187.79;;;11.00;100.00
64503;BME280;50971;51.940;21.258;2022-11-03T11:09:50;101173.73;;;11.29;100.00
64503;BME280;50971;51.940;21.258;2022-11-03T11:50:26;101123.41;;;11.19;100.00
64503;BME280;50971;51.940;21.258;2022-11-03T12:00:33;101108.05;;;11.20;100.00
64503;BME280;50971;51.940;21.258;2022-11-03T12:10:35;101099.73;;;11.20;100.00
64503;BME280;50971;51.940;21.258;2022-11-03T12:36:33;101078.63;;;11.98;100.00
64503;BME280;50971;51.940;21.258;2022-11-03T12:46:35;101074.04;;;12.51;100.00
64503;BME280;50971;51.940;21.258;2022-11-03T12:56:37;101060.56;;;12.79;100.00
64503;BME280;50971;51.940;21.258;2022-11-03T13:06:39;101053.52;;;12.82;100.00
64503;BME280;50971;51.940;21.258;2022-11-03T13:16:41;101045.16;;;12.73;100.00
64503;BME280;50971;51.940;21.258;2022-11-03T13:26:43;101038.50;;;12.72;100.00
64503;BME280;50971;51.940;21.258;2022-11-03T13:36:45;101039.30;;;12.70;100.00
64503;BME280;50971;51.940;21.258;2022-11-03T13:46:47;101040.86;;;12.52;100.00
64503;BME280;50971;51.940;21.258;2022-11-03T13:56:49;101030.80;;;12.23;100.00
64503;BME280;50971;51.940;21.258;2022-11-03T14:07:11;101029.99;;;11.71;100.00
64503;BME280;50971;51.940;21.258;2022-11-03T15:30:22;100985.86;;;8.18;100.00
64503;BME280;50971;51.940;21.258;2022-11-03T15:40:24;100985.10;;;7.79;100.00
64503;BME280;50971;51.940;21.258;2022-11-03T15:50:26;100973.83;;;7.49;100.00
64503;BME280;50971;51.940;21.258;2022-11-03T16:00:28;100965.08;;;7.10;100.00
64503;BME280;50971;51.940;21.258;2022-11-03T16:11:14;100957.42;;;6.70;100.00
64503;BME280;50971;51.940;21.258;2022-11-03T16:21:45;100945.11;;;6.38;100.00
64503;BME280;50971;51.940;21.258;2022-11-03T16:31:55;100937.45;;;6.39;100.00
64503;BME280;50971;51.940;21.258;2022-11-03T16:41:57;100927.94;;;6.39;100.00
64503;BME280;50971;51.940;21.258;2022-11-03T16:52:08;100926.35;;;6.14;100.00
64503;BME280;50971;51.940;21.258;2022-11-03T17:02:20;100916.84;;;5.71;100.00
64503;BME280;50971;51.940;21.258;2022-11-03T17:12:29;100898.17;;;5.32;100.00
64503;BME280;50971;51.940;21.258;2022-11-03T17:22:34;100880.23;;;5.51;100.00
64503;BME280;50971;51.940;21.258;2022-11-03T17:33:06;100863.25;;;5.74;100.00
64503;BME280;50971;51.940;21.258;2022-11-03T17:43:23;100849.38;;;5.85;100.00
64503;BME280;50971;51.940;21.258;2022-11-03T17:53:30;100852.20;;;5.66;100.00
64503;BME280;50971;51.940;21.258;2022-11-03T18:03:32;100851.20;;;5.21;100.00
64503;BME280;50971;51.940;21.258;2022-11-03T18:13:37;100852.28;;;4.75;100.00
64503;BME280;50971;51.940;21.258;2022-11-03T18:23:40;100851.73;;;4.69;100.00
64503;BME280;50971;51.940;21.258;2022-11-03T18:33:42;100852.50;;;4.60;100.00
64503;BME280;50971;51.940;21.258;2022-11-03T18:43:43;100840.27;;;4.33;100.00
64503;BME280;50971;51.940;21.258;2022-11-03T18:53:45;100831.86;;;3.98;100.00
64503;BME280;50971;51.940;21.258;2022-11-03T19:03:47;100807.02;;;3.70;100.00
64503;BME280;50971;51.940;21.258;2022-11-03T19:13:48;100799.26;;;3.67;100.00
64503;BME280;50971;51.940;21.258;2022-11-03T19:23:50;100789.98;;;3.70;100.00
64503;BME280;50971;51.940;21.258;2022-11-03T19:33:59;100786.98;;;3.52;100.00
64503;BME280;50971;51.940;21.258;2022-11-03T19:44:04;100769.85;;;3.26;100.00
64503;BME280;50971;51.940;21.258;2022-11-03T19:54:14;100764.46;;;3.04;100.00
64503;BME280;50971;51.940;21.258;2022-11-03T20:04:16;100762.16;;;3.12;100.00
64503;BME280;50971;51.940;21.258;2022-11-03T20:14:24;100758.30;;;3.28;100.00
64503;BME280;50971;51.940;21.258;2022-11-03T20:24:26;100734.26;;;3.44;100.00
64503;BME280;50971;51.940;21.258;2022-11-03T20:34:28;100717.22;;;3.70;100.00
64503;BME280;50971;51.940;21.258;2022-11-03T20:44:29;100697.94;;;3.99;100.00
64503;BME280;50971;51.940;21.258;2022-11-03T20:54:31;100683.33;;;4.28;100.00
64503;BME280;50971;51.940;21.258;2022-11-03T21:04:33;100673.55;;;4.48;100.00
64503;BME280;50971;51.940;21.258;2022-11-03T21:14:34;100645.63;;;4.68;100.00
64503;BME280;50971;51.940;21.258;2022-11-03T21:24:36;100628.53;;;4.67;100.00
64503;BME280;50971;51.940;21.258;2022-11-03T21:34:38;100612.82;;;4.77;100.00
64503;BME280;50971;51.940;21.258;2022-11-03T21:44:39;100607.50;;;4.83;100.00
64503;BME280;50971;51.940;21.258;2022-11-03T21:54:41;100605.35;;;4.58;100.00
64503;BME280;50971;51.940;21.258;2022-11-03T22:04:46;100597.02;;;4.28;100.00
64503;BME280;50971;51.940;21.258;2022-11-03T22:14:47;100587.67;;;4.21;100.00
64503;BME280;50971;51.940;21.258;2022-11-03T22:25:08;100572.94;;;4.15;100.00
64503;BME280;50971;51.940;21.258;2022-11-03T22:35:28;100568.73;;;4.06;100.00
64503;BME280;50971;51.940;21.258;2022-11-03T22:45:48;100563.05;;;4.07;100.00
64503;BME280;50971;51.940;21.258;2022-11-03T22:55:54;100560.36;;;4.09;100.00
64503;BME280;50971;51.940;21.258;2022-11-03T23:05:59;100557.92;;;4.13;100.00
64503;BME280;50971;51.940;21.258;2022-11-03T23:16:08;100538.38;;;3.88;100.00
64503;BME280;50971;51.940;21.258;2022-11-03T23:26:10;100525.08;;;3.73;100.00
64503;BME280;50971;51.940;21.258;2022-11-03T23:36:12;100518.54;;;3.96;100.00
64503;BME280;50971;51.940;21.258;2022-11-03T23:46:17;100504.48;;;4.18;100.00
64503;BME280;50971;51.940;21.258;2022-11-03T23:56:42;100500.98;;;4.40;100.00
